Language: 


Des rapports , des résumés tant et plus, au choix de chacun....


Données Historiques de Météogheer
Journalier Rapport pour Mars 4, 2017 Unitée:  Les deux    Impériale   Métrique
Suivant Jour »
Journalier Hebdomadaire Mensuel Annuel Sur mesure
  Max: Min: Moyenne:
Température: 51.6 °F /  10.9 °C 44.2 °F /  6.8 °C 48.2 °F /  9 °C
Point de rosée: 49.1 °F /  9.5 °C 43.2 °F /  6.2 °C 46.8 °F /  8.2 °C
Humidité: 98% 82% 95%
Vent: 15.2mph /  24.5km/h - 4.9mph /  7.9km/h
Rafales: 17.7mph /  28.5km/h - -
Vent- - SW
Pression: 29.4 in /  994.1 hPa 29.2 in /  989.1 hPa -
Pluie: 0.23 in /  5.8 mm    
Historical Graphs
 
 
Données tabulaires pour Mars 4, 2017
Heure Température Point de rosée Pression Vent Vent Rafales Humidité Pluie Taux (Horaire) Conditions
00:03 50.7 °F /  10.4 °C 46 °F /  7.8 °C 29.3in /  993.1hPa South 2.9mph /  4.7km/h 8.7mph /  14.0km/h 84% 0in /  0.0mm
00:08 50.7 °F /  10.4 °C 46 °F /  7.8 °C 29.3in /  993.1hPa South 3.4mph /  5.5km/h 8.7mph /  14.0km/h 84% 0in /  0.0mm
00:13 50.5 °F /  10.3 °C 45.9 °F /  7.7 °C 29.3in /  993.1hPa South 4.9mph /  7.9km/h 8.5mph /  13.7km/h 84% 0in /  0.0mm
00:18 50.4 °F /  10.2 °C 45.7 °F /  7.6 °C 29.3in /  993.1hPa SSW 4.3mph /  6.9km/h 6.5mph /  10.5km/h 84% 0in /  0.0mm
00:23 50.4 °F /  10.2 °C 45.7 °F /  7.6 °C 29.3in /  993.1hPa South 6mph /  9.7km/h 7.2mph /  11.6km/h 84% 0in /  0.0mm
00:28 50.5 °F /  10.3 °C 46.2 °F /  7.9 °C 29.3in /  993.1hPa South 7.4mph /  11.9km/h 9.8mph /  15.8km/h 85% 0in /  0.0mm
00:33 50.9 °F /  10.5 °C 46.6 °F /  8.1 °C 29.3in /  993.1hPa SSW 7.2mph /  11.6km/h 9.8mph /  15.8km/h 85% 0in /  0.0mm
00:38 50.9 °F /  10.5 °C 46.6 °F /  8.1 °C 29.3in /  993.1hPa South 5.6mph /  9.0km/h 9.6mph /  15.4km/h 85% 0in /  0.0mm
00:43 50.9 °F /  10.5 °C 46.6 °F /  8.1 °C 29.3in /  993.1hPa SSW 6.5mph /  10.5km/h 8.5mph /  13.7km/h 85% 0in /  0.0mm
00:48 51.1 °F /  10.6 °C 46.4 °F /  8.0 °C 29.3in /  993.1hPa South 8.1mph /  13.0km/h 8.5mph /  13.7km/h 84% 0in /  0.0mm
00:53 51.3 °F /  10.7 °C 46.6 °F /  8.1 °C 29.3in /  993.1hPa South 6.3mph /  10.1km/h 9.8mph /  15.8km/h 84% 0in /  0.0mm
00:58 51.3 °F /  10.7 °C 46.6 °F /  8.1 °C 29.3in /  993.1hPa SSW 7.4mph /  11.9km/h 10.3mph /  16.6km/h 84% 0in /  0.0mm
01:03 51.3 °F /  10.7 °C 46.6 °F /  8.1 °C 29.3in /  993.1hPa SSW 4.9mph /  7.9km/h 10.3mph /  16.6km/h 84% 0in /  0.0mm
01:08 51.1 °F /  10.6 °C 46.4 °F /  8.0 °C 29.3in /  993.1hPa South 7.6mph /  12.2km/h 8.7mph /  14.0km/h 84% 0in /  0.0mm
01:13 51.1 °F /  10.6 °C 46.4 °F /  8.0 °C 29.3in /  993.1hPa South 5.8mph /  9.3km/h 8.5mph /  13.7km/h 84% 0in /  0.0mm
01:18 51.1 °F /  10.6 °C 46.4 °F /  8.0 °C 29.3in /  993.1hPa South 6.5mph /  10.5km/h 8.9mph /  14.3km/h 84% 0in /  0.0mm
01:23 51.1 °F /  10.6 °C 46.4 °F /  8.0 °C 29.3in /  992.1hPa SSW 7.8mph /  12.6km/h 8.9mph /  14.3km/h 84% 0in /  0.0mm
01:28 51.3 °F /  10.7 °C 46.6 °F /  8.1 °C 29.3in /  992.1hPa SSW 5.4mph /  8.7km/h 10.7mph /  17.2km/h 84% 0in /  0.0mm
01:33 51.4 °F /  10.8 °C 46.4 °F /  8.0 °C 29.3in /  992.1hPa South 4.3mph /  6.9km/h 10.7mph /  17.2km/h 83% 0in /  0.0mm
01:38 51.6 °F /  10.9 °C 46.6 °F /  8.1 °C 29.3in /  993.1hPa WSW 6.3mph /  10.1km/h 10.7mph /  17.2km/h 83% 0in /  0.0mm
01:43 51.6 °F /  10.9 °C 46.6 °F /  8.1 °C 29.3in /  993.1hPa SSW 9.6mph /  15.4km/h 9.6mph /  15.4km/h 83% 0in /  0.0mm
01:48 51.6 °F /  10.9 °C 46.2 °F /  7.9 °C 29.3in /  993.1hPa West 12.3mph /  19.8km/h 14.5mph /  23.3km/h 82% 0in /  0.0mm
01:53 51.3 °F /  10.7 °C 46.2 °F /  7.9 °C 29.3in /  993.1hPa West 10.3mph /  16.6km/h 14.5mph /  23.3km/h 83% 0in /  0.0mm
01:58 50.9 °F /  10.5 °C 45.9 °F /  7.7 °C 29.3in /  993.1hPa WSW 4.9mph /  7.9km/h 12.3mph /  19.8km/h 83% 0in /  0.0mm
02:03 50.5 °F /  10.3 °C 45.7 °F /  7.6 °C 29.3in /  993.1hPa WSW 3.8mph /  6.1km/h 10.1mph /  16.3km/h 83% 0in /  0.0mm
02:08 50.4 °F /  10.2 °C 45.7 °F /  7.6 °C 29.3in /  993.1hPa WSW 3.6mph /  5.8km/h 5.8mph /  9.3km/h 84% 0in /  0.0mm
02:13 50 °F /  10.0 °C 45.3 °F /  7.4 °C 29.3in /  993.1hPa Calm   5.8mph /  9.3km/h 84% 0in /  0.0mm
02:18 49.6 °F /  9.8 °C 45 °F /  7.2 °C 29.3in /  993.1hPa Calm   3.4mph /  5.5km/h 84% 0in /  0.0mm
02:23 49.6 °F /  9.8 °C 45.3 °F /  7.4 °C 29.3in /  993.1hPa Calm   3.4mph /  5.5km/h 85% 0in /  0.0mm
02:28 49.6 °F /  9.8 °C 45.3 °F /  7.4 °C 29.3in /  993.1hPa South 3.4mph /  5.5km/h 4.5mph /  7.2km/h 85% 0in /  0.0mm
02:33 49.6 °F /  9.8 °C 45.3 °F /  7.4 °C 29.3in /  993.1hPa Calm   5.8mph /  9.3km/h 85% 0in /  0.0mm
02:38 49.6 °F /  9.8 °C 45.7 °F /  7.6 °C 29.3in /  992.1hPa SSE 1.6mph /  2.6km/h 5.8mph /  9.3km/h 86% 0in /  0.0mm
02:43 49.6 °F /  9.8 °C 45.7 °F /  7.6 °C 29.3in /  992.1hPa Calm   4.5mph /  7.2km/h 86% 0in /  0.0mm
02:48 49.5 °F /  9.7 °C 45.3 °F /  7.4 °C 29.3in /  992.1hPa SSE 3.1mph /  5.0km/h 4.3mph /  6.9km/h 86% 0in /  0.0mm
02:53 49.5 °F /  9.7 °C 45.3 °F /  7.4 °C 29.3in /  991.1hPa SE 2.9mph /  4.7km/h 4.9mph /  7.9km/h 86% 0in /  0.0mm
02:58 49.5 °F /  9.7 °C 45.9 °F /  7.7 °C 29.3in /  991.1hPa SE 4mph /  6.4km/h 4.9mph /  7.9km/h 87% 0in /  0.0mm
03:03 49.6 °F /  9.8 °C 45.9 °F /  7.7 °C 29.3in /  991.1hPa SSE 3.6mph /  5.8km/h 6mph /  9.7km/h 87% 0in /  0.0mm
03:08 49.8 °F /  9.9 °C 46 °F /  7.8 °C 29.2in /  990.1hPa South 4mph /  6.4km/h 5.6mph /  9.0km/h 87% 0in /  0.0mm
03:13 50.4 °F /  10.2 °C 46.9 °F /  8.3 °C 29.2in /  990.1hPa SSE 5.6mph /  9.0km/h 7.6mph /  12.2km/h 88% 0in /  0.0mm
03:15 50.4 °F /  10.2 °C 47.1 °F /  8.4 °C 29.2in /  990.1hPa South 5.4mph /  8.7km/h 8.5mph /  13.7km/h 89% 0in /  0.0mm
03:20 50.5 °F /  10.3 °C 47.5 °F /  8.6 °C 29.2in /  990.1hPa Calm   8.5mph /  13.7km/h 89% 0in /  0.0mm
03:25 50.7 °F /  10.4 °C 47.7 °F /  8.7 °C 29.3in /  991.1hPa Calm   9.6mph /  15.4km/h 89% 0in /  0.0mm
03:30 50.7 °F /  10.4 °C 47.7 °F /  8.7 °C 29.3in /  991.1hPa SSE 5.4mph /  8.7km/h 9.6mph /  15.4km/h 89% 0in /  0.0mm
03:35 50.7 °F /  10.4 °C 47.7 °F /  8.7 °C 29.3in /  991.1hPa SSE 6mph /  9.7km/h 9.8mph /  15.8km/h 89% 0in /  0.0mm
03:40 50.7 °F /  10.4 °C 47.8 °F /  8.8 °C 29.2in /  990.1hPa South 6mph /  9.7km/h 9.8mph /  15.8km/h 90% 0in /  0.0mm
03:45 50.7 °F /  10.4 °C 47.8 °F /  8.8 °C 29.2in /  990.1hPa SSW 11mph /  17.7km/h 11mph /  17.7km/h 90% 0in /  0.0mm
03:50 50.9 °F /  10.5 °C 48.6 °F /  9.2 °C 29.2in /  990.1hPa SSE 8.1mph /  13.0km/h 13mph /  20.9km/h 92% 0in /  0.0mm
03:55 50.9 °F /  10.5 °C 48.6 °F /  9.2 °C 29.3in /  991.1hPa SSW 13.4mph /  21.6km/h 15.4mph /  24.8km/h 92% 0in /  0.0mm
04:00 50.9 °F /  10.5 °C 48.9 °F /  9.4 °C 29.3in /  991.1hPa South 10.7mph /  17.2km/h 15.4mph /  24.8km/h 93% 0in /  0.0mm
04:05 50.9 °F /  10.5 °C 48.9 °F /  9.4 °C 29.3in /  991.1hPa SSE 15.2mph /  24.5km/h 15.2mph /  24.5km/h 93% 0in /  0.0mm
04:10 50.7 °F /  10.4 °C 48.7 °F /  9.3 °C 29.3in /  991.1hPa SSE 9.8mph /  15.8km/h 15.2mph /  24.5km/h 93% 0in /  0.0mm
04:15 50.7 °F /  10.4 °C 48.7 °F /  9.3 °C 29.3in /  991.1hPa South 15.2mph /  24.5km/h 15.2mph /  24.5km/h 93% 0in /  0.0mm
04:20 50.7 °F /  10.4 °C 48.9 °F /  9.4 °C 29.3in /  991.1hPa SSE 9.8mph /  15.8km/h 15.4mph /  24.8km/h 94% 0in /  0.0mm
04:25 50.5 °F /  10.3 °C 48.9 °F /  9.4 °C 29.3in /  991.1hPa SW 10.3mph /  16.6km/h 15.4mph /  24.8km/h 94% 0in /  0.0mm
04:30 50.5 °F /  10.3 °C 49.1 °F /  9.5 °C 29.3in /  991.1hPa SSW 8.9mph /  14.3km/h 13.2mph /  21.2km/h 95% 0in /  0.0mm
04:35 50.4 °F /  10.2 °C 48.9 °F /  9.4 °C 29.3in /  991.1hPa SSE 7.6mph /  12.2km/h 13.2mph /  21.2km/h 95% 0.01in /  0.3mm
04:40 50.4 °F /  10.2 °C 48.9 °F /  9.4 °C 29.3in /  991.1hPa SSE 10.1mph /  16.3km/h 14.8mph /  23.8km/h 95% 0.01in /  0.3mm
04:45 50.2 °F /  10.1 °C 49.1 °F /  9.5 °C 29.3in /  991.1hPa SSW 12.8mph /  20.6km/h 14.8mph /  23.8km/h 96% 0.01in /  0.3mm
04:50 50 °F /  10.0 °C 48.9 °F /  9.4 °C 29.3in /  991.1hPa South 10.1mph /  16.3km/h 14.3mph /  23.0km/h 96% 0.03in /  0.8mm
04:55 50 °F /  10.0 °C 48.9 °F /  9.4 °C 29.3in /  991.1hPa South 7.4mph /  11.9km/h 12.8mph /  20.6km/h 96% 0.03in /  0.8mm
05:00 49.8 °F /  9.9 °C 48.7 °F /  9.3 °C 29.3in /  991.1hPa SSE 5.8mph /  9.3km/h 12.5mph /  20.1km/h 96% 0.03in /  0.8mm
05:05 49.8 °F /  9.9 °C 48.7 °F /  9.3 °C 29.3in /  991.1hPa South 7.6mph /  12.2km/h 12.8mph /  20.6km/h 96% 0.03in /  0.8mm
05:10 49.8 °F /  9.9 °C 48.7 °F /  9.3 °C 29.3in /  991.1hPa South 6.5mph /  10.5km/h 12.8mph /  20.6km/h 96% 0.04in /  1.0mm
05:16 49.8 °F /  9.9 °C 48.9 °F /  9.4 °C 29.3in /  991.1hPa SSE 11mph /  17.7km/h 15.2mph /  24.5km/h 97% 0.04in /  1.0mm
05:21 49.8 °F /  9.9 °C 48.9 °F /  9.4 °C 29.3in /  991.1hPa SSE 6mph /  9.7km/h 15.2mph /  24.5km/h 97% 0.04in /  1.0mm
05:26 49.8 °F /  9.9 °C 48.9 °F /  9.4 °C 29.3in /  991.1hPa SSE 11mph /  17.7km/h 15.9mph /  25.6km/h 97% 0.04in /  1.0mm
05:31 49.8 °F /  9.9 °C 48.9 °F /  9.4 °C 29.3in /  991.1hPa SSE 8.7mph /  14.0km/h 15.9mph /  25.6km/h 97% 0.05in /  1.3mm
05:36 49.8 °F /  9.9 °C 48.9 °F /  9.4 °C 29.3in /  991.1hPa South 5.6mph /  9.0km/h 13.2mph /  21.2km/h 97% 0.04in /  1.0mm
05:41 49.8 °F /  9.9 °C 48.9 °F /  9.4 °C 29.3in /  991.1hPa SSW 7.4mph /  11.9km/h 14.5mph /  23.3km/h 97% 0.04in /  1.0mm
05:46 49.8 °F /  9.9 °C 48.9 °F /  9.4 °C 29.3in /  991.1hPa SSW 6.3mph /  10.1km/h 14.5mph /  23.3km/h 97% 0.04in /  1.0mm
05:51 49.6 °F /  9.8 °C 48.7 °F /  9.3 °C 29.3in /  991.1hPa SSW 8.9mph /  14.3km/h 12.5mph /  20.1km/h 97% 0.02in /  0.5mm
05:56 49.6 °F /  9.8 °C 48.7 °F /  9.3 °C 29.2in /  990.1hPa South 6.5mph /  10.5km/h 12.3mph /  19.8km/h 97% 0.02in /  0.5mm
06:01 49.6 °F /  9.8 °C 48.7 °F /  9.3 °C 29.2in /  990.1hPa SSE 5.8mph /  9.3km/h 11.2mph /  18.0km/h 97% 0.02in /  0.5mm
06:06 49.6 °F /  9.8 °C 48.7 °F /  9.3 °C 29.2in /  990.1hPa SSE 8.1mph /  13.0km/h 13.9mph /  22.4km/h 97% 0.03in /  0.8mm
06:11 49.6 °F /  9.8 °C 48.7 °F /  9.3 °C 29.2in /  990.1hPa South 8.1mph /  13.0km/h 17.7mph /  28.5km/h 97% 0.02in /  0.5mm
06:16 49.6 °F /  9.8 °C 48.7 °F /  9.3 °C 29.2in /  990.1hPa South 7.8mph /  12.6km/h 17.7mph /  28.5km/h 97% 0.02in /  0.5mm
06:21 49.5 °F /  9.7 °C 48.9 °F /  9.4 °C 29.2in /  990.1hPa SSW 6.5mph /  10.5km/h 11.9mph /  19.1km/h 98% 0.02in /  0.5mm
06:26 49.5 °F /  9.7 °C 48.9 °F /  9.4 °C 29.2in /  990.1hPa SSW 1.3mph /  2.1km/h 11.9mph /  19.1km/h 98% 0.02in /  0.5mm
06:31 49.5 °F /  9.7 °C 48.6 °F /  9.2 °C 29.2in /  990.1hPa SSE 8.5mph /  13.7km/h 12.3mph /  19.8km/h 97% 0.01in /  0.3mm
06:36 49.5 °F /  9.7 °C 48.9 °F /  9.4 °C 29.2in /  990.1hPa South 10.3mph /  16.6km/h 13mph /  20.9km/h 98% 0.01in /  0.3mm
06:41 49.5 °F /  9.7 °C 48.9 °F /  9.4 °C 29.2in /  990.1hPa SSW 6mph /  9.7km/h 13mph /  20.9km/h 98% 0.01in /  0.3mm
06:46 49.5 °F /  9.7 °C 48.9 °F /  9.4 °C 29.2in /  990.1hPa SSW 7.4mph /  11.9km/h 13mph /  20.9km/h 98% 0.01in /  0.3mm
06:51 49.5 °F /  9.7 °C 48.9 °F /  9.4 °C 29.2in /  990.1hPa SSE 10.3mph /  16.6km/h 13.2mph /  21.2km/h 98% 0.02in /  0.5mm
06:56 49.5 °F /  9.7 °C 48.9 °F /  9.4 °C 29.2in /  990.1hPa WSW 6.3mph /  10.1km/h 13.2mph /  21.2km/h 98% 0.02in /  0.5mm
07:01 49.5 °F /  9.7 °C 48.9 °F /  9.4 °C 29.2in /  990.1hPa South 8.7mph /  14.0km/h 10.3mph /  16.6km/h 98% 0.02in /  0.5mm
07:06 49.3 °F /  9.6 °C 48.7 °F /  9.3 °C 29.2in /  990.1hPa SE 6.5mph /  10.5km/h 11.4mph /  18.3km/h 98% 0.01in /  0.3mm
07:11 49.3 °F /  9.6 °C 48.7 °F /  9.3 °C 29.2in /  989.1hPa South 3.6mph /  5.8km/h 12.8mph /  20.6km/h 98% 0.02in /  0.5mm
07:16 49.3 °F /  9.6 °C 48.7 °F /  9.3 °C 29.2in /  989.1hPa South 7.4mph /  11.9km/h 12.8mph /  20.6km/h 98% 0.02in /  0.5mm
07:21 49.5 °F /  9.7 °C 48.9 °F /  9.4 °C 29.2in /  989.1hPa SSE 9.6mph /  15.4km/h 12.5mph /  20.1km/h 98% 0.02in /  0.5mm
07:26 49.5 °F /  9.7 °C 48.9 °F /  9.4 °C 29.2in /  989.1hPa SSW 5.8mph /  9.3km/h 12.5mph /  20.1km/h 98% 0.02in /  0.5mm
07:31 49.3 °F /  9.6 °C 48.7 °F /  9.3 °C 29.2in /  989.1hPa South 6.3mph /  10.1km/h 12.5mph /  20.1km/h 98% 0.02in /  0.5mm
07:36 49.3 °F /  9.6 °C 48.7 °F /  9.3 °C 29.2in /  989.1hPa SSW 6mph /  9.7km/h 13mph /  20.9km/h 98% 0.02in /  0.5mm
07:41 49.3 °F /  9.6 °C 48.7 °F /  9.3 °C 29.2in /  989.1hPa SSE 6.3mph /  10.1km/h 13.2mph /  21.2km/h 98% 0.02in /  0.5mm
07:46 49.3 °F /  9.6 °C 48.7 °F /  9.3 °C 29.2in /  989.1hPa SE 10.5mph /  16.9km/h 16.3mph /  26.2km/h 98% 0.02in /  0.5mm
07:51 49.3 °F /  9.6 °C 48.7 °F /  9.3 °C 29.2in /  989.1hPa South 5.6mph /  9.0km/h 17mph /  27.4km/h 98% 0.01in /  0.3mm
07:56 49.3 °F /  9.6 °C 48.7 °F /  9.3 °C 29.2in /  989.1hPa South 8.7mph /  14.0km/h 17mph /  27.4km/h 98% 0.01in /  0.3mm
08:01 49.3 °F /  9.6 °C 48.7 °F /  9.3 °C 29.2in /  989.1hPa South 7.6mph /  12.2km/h 16.8mph /  27.0km/h 98% 0.01in /  0.3mm
08:06 49.3 °F /  9.6 °C 48.7 °F /  9.3 °C 29.2in /  989.1hPa SSE 5.8mph /  9.3km/h 13mph /  20.9km/h 98% 0.01in /  0.3mm
08:11 49.3 °F /  9.6 °C 48.7 °F /  9.3 °C 29.2in /  989.1hPa SSE 10.3mph /  16.6km/h 13mph /  20.9km/h 98% 0in /  0.0mm
08:16 49.3 °F /  9.6 °C 48.7 °F /  9.3 °C 29.2in /  989.1hPa SSW 4.7mph /  7.6km/h 11.2mph /  18.0km/h 98% 0in /  0.0mm
08:21 49.3 °F /  9.6 °C 48.7 °F /  9.3 °C 29.2in /  989.1hPa South 8.7mph /  14.0km/h 10.5mph /  16.9km/h 98% 0in /  0.0mm
08:26 49.3 °F /  9.6 °C 48.7 °F /  9.3 °C 29.2in /  989.1hPa SSE 8.1mph /  13.0km/h 10.7mph /  17.2km/h 98% 0in /  0.0mm
08:31 49.3 °F /  9.6 °C 48.7 °F /  9.3 °C 29.2in /  989.1hPa South 8.1mph /  13.0km/h 12.3mph /  19.8km/h 98% 0in /  0.0mm
08:36 49.3 °F /  9.6 °C 48.7 °F /  9.3 °C 29.2in /  989.1hPa South 6.3mph /  10.1km/h 12.3mph /  19.8km/h 98% 0in /  0.0mm
08:41 49.3 °F /  9.6 °C 48.7 °F /  9.3 °C 29.2in /  989.1hPa SSW 12.3mph /  19.8km/h 15.2mph /  24.5km/h 98% 0in /  0.0mm
08:46 49.3 °F /  9.6 °C 48.7 °F /  9.3 °C 29.2in /  989.1hPa SSW 7.8mph /  12.6km/h 15.2mph /  24.5km/h 98% 0in /  0.0mm
08:51 49.3 °F /  9.6 °C 48.7 °F /  9.3 °C 29.2in /  989.1hPa South 10.7mph /  17.2km/h 14.8mph /  23.8km/h 98% 0in /  0.0mm
08:56 49.3 °F /  9.6 °C 48.6 °F /  9.2 °C 29.2in /  989.1hPa South 8.7mph /  14.0km/h 14.8mph /  23.8km/h 97% 0.01in /  0.3mm
09:02 49.3 °F /  9.6 °C 48.6 °F /  9.2 °C 29.2in /  989.1hPa SW 6.3mph /  10.1km/h 15.9mph /  25.6km/h 97% 0.01in /  0.3mm
09:07 49.5 °F /  9.7 °C 48.6 °F /  9.2 °C 29.2in /  989.1hPa South 6mph /  9.7km/h 15.9mph /  25.6km/h 97% 0.01in /  0.3mm
09:12 49.3 °F /  9.6 °C 48.6 °F /  9.2 °C 29.2in /  989.1hPa SSW 5.6mph /  9.0km/h 12.8mph /  20.6km/h 97% 0.01in /  0.3mm
09:17 49.3 °F /  9.6 °C 48.6 °F /  9.2 °C 29.2in /  989.1hPa SSW 5.4mph /  8.7km/h 12.8mph /  20.6km/h 97% 0.01in /  0.3mm
09:22 49.3 °F /  9.6 °C 48.6 °F /  9.2 °C 29.2in /  989.1hPa SSW 5.8mph /  9.3km/h 12.8mph /  20.6km/h 97% 0.01in /  0.3mm
09:27 49.3 °F /  9.6 °C 48.6 °F /  9.2 °C 29.2in /  990.1hPa SSW 4.9mph /  7.9km/h 10.1mph /  16.3km/h 97% 0.01in /  0.3mm
09:32 49.1 °F /  9.5 °C 48.4 °F /  9.1 °C 29.2in /  990.1hPa WSW 6.3mph /  10.1km/h 13.2mph /  21.2km/h 97% 0.01in /  0.3mm
09:37 49.1 °F /  9.5 °C 48.4 °F /  9.1 °C 29.2in /  990.1hPa WSW 7.2mph /  11.6km/h 13.2mph /  21.2km/h 97% 0.01in /  0.3mm
09:42 48.9 °F /  9.4 °C 48 °F /  8.9 °C 29.3in /  991.1hPa WSW 10.3mph /  16.6km/h 10.7mph /  17.2km/h 97% 0.01in /  0.3mm
09:47 48.7 °F /  9.3 °C 47.8 °F /  8.8 °C 29.3in /  991.1hPa WSW 6.5mph /  10.5km/h 10.7mph /  17.2km/h 97% 0.01in /  0.3mm
09:52 48.7 °F /  9.3 °C 47.8 °F /  8.8 °C 29.3in /  991.1hPa WSW 7.4mph /  11.9km/h 10.5mph /  16.9km/h 97% 0in /  0.0mm
09:57 48.6 °F /  9.2 °C 48 °F /  8.9 °C 29.2in /  990.1hPa WSW 6mph /  9.7km/h 10.5mph /  16.9km/h 98% 0in /  0.0mm
10:02 48.6 °F /  9.2 °C 48 °F /  8.9 °C 29.2in /  990.1hPa WSW 4.9mph /  7.9km/h 8.7mph /  14.0km/h 98% 0in /  0.0mm
10:07 48.6 °F /  9.2 °C 48 °F /  8.9 °C 29.2in /  990.1hPa WSW 6.3mph /  10.1km/h 7.4mph /  11.9km/h 98% 0in /  0.0mm
10:12 48.6 °F /  9.2 °C 48 °F /  8.9 °C 29.3in /  991.1hPa West 6.3mph /  10.1km/h 7.4mph /  11.9km/h 98% 0in /  0.0mm
10:17 48.6 °F /  9.2 °C 48 °F /  8.9 °C 29.3in /  991.1hPa WSW 3.6mph /  5.8km/h 7.6mph /  12.2km/h 98% 0in /  0.0mm
10:22 48.6 °F /  9.2 °C 48 °F /  8.9 °C 29.3in /  991.1hPa WSW 6mph /  9.7km/h 7.6mph /  12.2km/h 98% 0in /  0.0mm
10:27 48.7 °F /  9.3 °C 48.2 °F /  9.0 °C 29.2in /  990.1hPa SW 3.8mph /  6.1km/h 6.3mph /  10.1km/h 98% 0in /  0.0mm
10:32 48.7 °F /  9.3 °C 48.2 °F /  9.0 °C 29.2in /  990.1hPa WSW 4.9mph /  7.9km/h 6.3mph /  10.1km/h 98% 0in /  0.0mm
10:37 48.7 °F /  9.3 °C 48.2 °F /  9.0 °C 29.2in /  990.1hPa WSW 4.3mph /  6.9km/h 6.3mph /  10.1km/h 98% 0in /  0.0mm
10:42 48.7 °F /  9.3 °C 48.2 °F /  9.0 °C 29.2in /  990.1hPa SW 3.6mph /  5.8km/h 4.9mph /  7.9km/h 98% 0in /  0.0mm
10:47 48.9 °F /  9.4 °C 48.4 °F /  9.1 °C 29.2in /  990.1hPa SW 4.9mph /  7.9km/h 4.9mph /  7.9km/h 98% 0in /  0.0mm
10:52 48.9 °F /  9.4 °C 48.4 °F /  9.1 °C 29.2in /  990.1hPa SW 4mph /  6.4km/h 5.8mph /  9.3km/h 98% 0in /  0.0mm
10:57 48.9 °F /  9.4 °C 48.4 °F /  9.1 °C 29.2in /  990.1hPa Calm   5.8mph /  9.3km/h 98% 0in /  0.0mm
11:02 48.9 °F /  9.4 °C 48.4 °F /  9.1 °C 29.2in /  990.1hPa WSW 2.5mph /  4.0km/h 4mph /  6.4km/h 98% 0in /  0.0mm
11:07 48.9 °F /  9.4 °C 48.4 °F /  9.1 °C 29.2in /  990.1hPa WSW 4mph /  6.4km/h 5.6mph /  9.0km/h 98% 0in /  0.0mm
11:12 48.7 °F /  9.3 °C 48.2 °F /  9.0 °C 29.2in /  990.1hPa WSW 3.1mph /  5.0km/h 5.6mph /  9.0km/h 98% 0in /  0.0mm
11:17 48.7 °F /  9.3 °C 48.2 °F /  9.0 °C 29.2in /  990.1hPa SW 4mph /  6.4km/h 4.7mph /  7.6km/h 98% 0in /  0.0mm
11:22 48.7 °F /  9.3 °C 48.2 °F /  9.0 °C 29.3in /  991.1hPa SSW 2.9mph /  4.7km/h 4.7mph /  7.6km/h 98% 0.01in /  0.3mm
11:27 48.7 °F /  9.3 °C 48.2 °F /  9.0 °C 29.3in /  991.1hPa SW 4.3mph /  6.9km/h 6mph /  9.7km/h 98% 0.01in /  0.3mm
11:32 48.7 °F /  9.3 °C 48.2 °F /  9.0 °C 29.3in /  991.1hPa SW 3.6mph /  5.8km/h 6mph /  9.7km/h 98% 0.01in /  0.3mm
11:37 48.7 °F /  9.3 °C 48.2 °F /  9.0 °C 29.2in /  990.1hPa SW 2.2mph /  3.5km/h 5.4mph /  8.7km/h 98% 0.01in /  0.3mm
11:42 48.9 °F /  9.4 °C 48.4 °F /  9.1 °C 29.2in /  990.1hPa Calm   4.3mph /  6.9km/h 98% 0.01in /  0.3mm
11:47 48.9 °F /  9.4 °C 48.4 °F /  9.1 °C 29.2in /  990.1hPa Calm   3.6mph /  5.8km/h 98% 0.01in /  0.3mm
11:52 49.1 °F /  9.5 °C 48.6 °F /  9.2 °C 29.2in /  990.1hPa Calm   3.6mph /  5.8km/h 98% 0.03in /  0.8mm
11:57 49.1 °F /  9.5 °C 48.6 °F /  9.2 °C 29.2in /  990.1hPa Calm   3.4mph /  5.5km/h 98% 0.03in /  0.8mm
12:02 49.3 °F /  9.6 °C 48.7 °F /  9.3 °C 29.2in /  990.1hPa West 2.9mph /  4.7km/h 4.3mph /  6.9km/h 98% 0.03in /  0.8mm
12:07 49.5 °F /  9.7 °C 48.9 °F /  9.4 °C 29.2in /  990.1hPa WSW 3.6mph /  5.8km/h 4.7mph /  7.6km/h 98% 0.03in /  0.8mm
12:12 49.5 °F /  9.7 °C 48.9 °F /  9.4 °C 29.2in /  990.1hPa Calm   4.7mph /  7.6km/h 98% 0.03in /  0.8mm
12:17 49.5 °F /  9.7 °C 48.9 °F /  9.4 °C 29.2in /  990.1hPa WSW 3.6mph /  5.8km/h 5.8mph /  9.3km/h 98% 0.03in /  0.8mm
12:22 49.5 °F /  9.7 °C 48.9 °F /  9.4 °C 29.2in /  990.1hPa WSW 5.6mph /  9.0km/h 7.4mph /  11.9km/h 98% 0.01in /  0.3mm
12:27 49.3 °F /  9.6 °C 48.6 °F /  9.2 °C 29.2in /  990.1hPa WSW 9.8mph /  15.8km/h 10.5mph /  16.9km/h 97% 0.01in /  0.3mm
12:32 48.9 °F /  9.4 °C 48 °F /  8.9 °C 29.2in /  990.1hPa WNW 5.4mph /  8.7km/h 10.5mph /  16.9km/h 97% 0.01in /  0.3mm
12:37 48.9 °F /  9.4 °C 48 °F /  8.9 °C 29.2in /  990.1hPa Calm   9.8mph /  15.8km/h 97% 0.01in /  0.3mm
12:42 48.9 °F /  9.4 °C 48 °F /  8.9 °C 29.2in /  990.1hPa Calm   5.4mph /  8.7km/h 97% 0.01in /  0.3mm
12:47 49.3 °F /  9.6 °C 48.6 °F /  9.2 °C 29.2in /  990.1hPa Calm   4mph /  6.4km/h 97% 0.03in /  0.8mm
12:52 49.3 °F /  9.6 °C 48.6 °F /  9.2 °C 29.2in /  990.1hPa North 2.9mph /  4.7km/h 4mph /  6.4km/h 97% 0.01in /  0.3mm
12:57 49.1 °F /  9.5 °C 48.4 °F /  9.1 °C 29.2in /  990.1hPa Calm   3.4mph /  5.5km/h 97% 0.01in /  0.3mm
13:02 48.9 °F /  9.4 °C 48 °F /  8.9 °C 29.2in /  990.1hPa Calm   3.1mph /  5.0km/h 97% 0.01in /  0.3mm
13:07 48.9 °F /  9.4 °C 48 °F /  8.9 °C 29.2in /  990.1hPa Calm   2.2mph /  3.5km/h 97% 0.01in /  0.3mm
13:12 48.9 °F /  9.4 °C 48 °F /  8.9 °C 29.2in /  990.1hPa Calm   3.8mph /  6.1km/h 97% 0.01in /  0.3mm
13:17 48.7 °F /  9.3 °C 47.8 °F /  8.8 °C 29.2in /  990.1hPa Calm   3.8mph /  6.1km/h 97% 0.01in /  0.3mm
13:22 48.7 °F /  9.3 °C 47.8 °F /  8.8 °C 29.2in /  990.1hPa NNW 2.7mph /  4.3km/h 4.3mph /  6.9km/h 97% 0.01in /  0.3mm
13:27 48.9 °F /  9.4 °C 48 °F /  8.9 °C 29.2in /  990.1hPa West 1.6mph /  2.6km/h 4.3mph /  6.9km/h 97% 0.01in /  0.3mm
13:32 48.9 °F /  9.4 °C 48 °F /  8.9 °C 29.2in /  990.1hPa Calm   3.8mph /  6.1km/h 97% 0.02in /  0.5mm
13:37 49.1 °F /  9.5 °C 48.4 °F /  9.1 °C 29.2in /  990.1hPa NW 3.4mph /  5.5km/h 5.6mph /  9.0km/h 97% 0.02in /  0.5mm
13:42 49.5 °F /  9.7 °C 48.6 °F /  9.2 °C 29.2in /  990.1hPa West 4.9mph /  7.9km/h 5.6mph /  9.0km/h 97% 0.02in /  0.5mm
13:47 49.5 °F /  9.7 °C 48.6 °F /  9.2 °C 29.2in /  990.1hPa West 4mph /  6.4km/h 5.6mph /  9.0km/h 97% 0.01in /  0.3mm
13:52 49.3 °F /  9.6 °C 48.6 °F /  9.2 °C 29.2in /  990.1hPa WNW 3.1mph /  5.0km/h 5.6mph /  9.0km/h 97% 0.01in /  0.3mm
13:57 49.1 °F /  9.5 °C 48.4 °F /  9.1 °C 29.2in /  990.1hPa West 4.9mph /  7.9km/h 5.6mph /  9.0km/h 97% 0.01in /  0.3mm
14:02 48.9 °F /  9.4 °C 48 °F /  8.9 °C 29.2in /  990.1hPa West 4mph /  6.4km/h 7.6mph /  12.2km/h 97% 0.01in /  0.3mm
14:07 48.6 °F /  9.2 °C 47.8 °F /  8.8 °C 29.3in /  991.1hPa West 5.8mph /  9.3km/h 7.6mph /  12.2km/h 97% 0.01in /  0.3mm
14:12 48.4 °F /  9.1 °C 47.7 °F /  8.7 °C 29.3in /  991.1hPa West 6mph /  9.7km/h 7.4mph /  11.9km/h 97% 0.01in /  0.3mm
14:17 48.4 °F /  9.1 °C 47.7 °F /  8.7 °C 29.3in /  991.1hPa WNW 3.1mph /  5.0km/h 7.8mph /  12.6km/h 97% 0.01in /  0.3mm
14:22 48.6 °F /  9.2 °C 47.8 °F /  8.8 °C 29.2in /  990.1hPa WNW 3.4mph /  5.5km/h 7.8mph /  12.6km/h 97% 0.02in /  0.5mm
14:27 48.7 °F /  9.3 °C 47.8 °F /  8.8 °C 29.2in /  990.1hPa WSW 3.6mph /  5.8km/h 7.4mph /  11.9km/h 97% 0.02in /  0.5mm
14:32 48.7 °F /  9.3 °C 47.8 °F /  8.8 °C 29.2in /  990.1hPa WNW 5.8mph /  9.3km/h 7.4mph /  11.9km/h 97% 0.01in /  0.3mm
14:37 48.7 °F /  9.3 °C 47.8 °F /  8.8 °C 29.2in /  990.1hPa West 2.7mph /  4.3km/h 7.6mph /  12.2km/h 97% 0.01in /  0.3mm
14:42 48.7 °F /  9.3 °C 47.8 °F /  8.8 °C 29.2in /  990.1hPa West 3.4mph /  5.5km/h 7.6mph /  12.2km/h 97% 0.01in /  0.3mm
14:47 48.6 °F /  9.2 °C 47.8 °F /  8.8 °C 29.2in /  990.1hPa West 2mph /  3.2km/h 5.6mph /  9.0km/h 97% 0.02in /  0.5mm
14:52 48.4 °F /  9.1 °C 47.7 °F /  8.7 °C 29.2in /  990.1hPa Calm   6mph /  9.7km/h 97% 0.02in /  0.5mm
14:57 48.4 °F /  9.1 °C 47.7 °F /  8.7 °C 29.2in /  990.1hPa Calm   6mph /  9.7km/h 97% 0.02in /  0.5mm
15:02 48.4 °F /  9.1 °C 47.7 °F /  8.7 °C 29.2in /  990.1hPa NW 4.3mph /  6.9km/h 6.3mph /  10.1km/h 97% 0.02in /  0.5mm
15:07 48.2 °F /  9.0 °C 47.5 °F /  8.6 °C 29.2in /  990.1hPa WNW 2.9mph /  4.7km/h 6.3mph /  10.1km/h 97% 0.02in /  0.5mm
15:12 48.2 °F /  9.0 °C 47.5 °F /  8.6 °C 29.2in /  990.1hPa WSW 3.6mph /  5.8km/h 6.5mph /  10.5km/h 97% 0.02in /  0.5mm
15:17 48 °F /  8.9 °C 47.1 °F /  8.4 °C 29.2in /  990.1hPa West 4.9mph /  7.9km/h 6.9mph /  11.1km/h 97% 0.02in /  0.5mm
15:22 48 °F /  8.9 °C 47.1 °F /  8.4 °C 29.3in /  991.1hPa West 2.5mph /  4.0km/h 6.9mph /  11.1km/h 97% 0.01in /  0.3mm
15:27 47.7 °F /  8.7 °C 46.9 °F /  8.3 °C 29.3in /  991.1hPa WSW 4.7mph /  7.6km/h 9.8mph /  15.8km/h 97% 0.01in /  0.3mm
15:32 47.3 °F /  8.5 °C 46.6 °F /  8.1 °C 29.3in /  991.1hPa West 3.8mph /  6.1km/h 9.8mph /  15.8km/h 97% 0.03in /  0.8mm
15:37 47.1 °F /  8.4 °C 46.4 °F /  8.0 °C 29.3in /  991.1hPa West 2.9mph /  4.7km/h 5.8mph /  9.3km/h 97% 0.04in /  1.0mm
15:42 46.9 °F /  8.3 °C 46.2 °F /  7.9 °C 29.3in /  991.1hPa WNW 1.3mph /  2.1km/h 4.9mph /  7.9km/h 97% 0.04in /  1.0mm
15:47 46.9 °F /  8.3 °C 46.2 °F /  7.9 °C 29.3in /  991.1hPa West 3.4mph /  5.5km/h 5.6mph /  9.0km/h 97% 0.04in /  1.0mm
15:52 46.9 °F /  8.3 °C 46.2 °F /  7.9 °C 29.3in /  991.1hPa Calm   5.6mph /  9.0km/h 97% 0.04in /  1.0mm
15:57 46.9 °F /  8.3 °C 46.2 °F /  7.9 °C 29.3in /  991.1hPa Calm   4.7mph /  7.6km/h 97% 0.05in /  1.3mm
16:02 46.9 °F /  8.3 °C 46.2 °F /  7.9 °C 29.3in /  991.1hPa Calm   4.7mph /  7.6km/h 97% 0.05in /  1.3mm
16:07 47.1 °F /  8.4 °C 46.4 °F /  8.0 °C 29.3in /  991.1hPa Calm   4.7mph /  7.6km/h 97% 0.05in /  1.3mm
16:12 47.3 °F /  8.5 °C 46.6 °F /  8.1 °C 29.3in /  991.1hPa West 1.6mph /  2.6km/h 4.3mph /  6.9km/h 97% 0.05in /  1.3mm
16:17 47.1 °F /  8.4 °C 46.4 °F /  8.0 °C 29.3in /  991.1hPa NNW 2.2mph /  3.5km/h 3.1mph /  5.0km/h 97% 0.05in /  1.3mm
16:22 46.9 °F /  8.3 °C 46.2 °F /  7.9 °C 29.3in /  991.1hPa West 2.9mph /  4.7km/h 3.8mph /  6.1km/h 97% 0.06in /  1.5mm
16:27 46.8 °F /  8.2 °C 46 °F /  7.8 °C 29.3in /  991.1hPa WSW 2.9mph /  4.7km/h 6.5mph /  10.5km/h 97% 0.06in /  1.5mm
16:32 46.6 °F /  8.1 °C 45.9 °F /  7.7 °C 29.3in /  991.1hPa West 6.5mph /  10.5km/h 6.5mph /  10.5km/h 97% 0.04in /  1.0mm
16:37 46.6 °F /  8.1 °C 45.9 °F /  7.7 °C 29.3in /  991.1hPa WSW 4.3mph /  6.9km/h 6.5mph /  10.5km/h 97% 0.03in /  0.8mm
16:42 46.6 °F /  8.1 °C 45.9 °F /  7.7 °C 29.3in /  991.1hPa WSW 2.7mph /  4.3km/h 6.5mph /  10.5km/h 97% 0.04in /  1.0mm
16:47 46.6 °F /  8.1 °C 45.7 °F /  7.6 °C 29.3in /  991.1hPa Calm   5.6mph /  9.0km/h 97% 0.03in /  0.8mm
16:52 46.2 °F /  7.9 °C 45.5 °F /  7.5 °C 29.3in /  991.1hPa Calm   3.4mph /  5.5km/h 97% 0.03in /  0.8mm
16:57 46.6 °F /  8.1 °C 45.7 °F /  7.6 °C 29.3in /  991.1hPa West 2mph /  3.2km/h 2mph /  3.2km/h 97% 0.02in /  0.5mm
17:02 46.6 °F /  8.1 °C 45.7 °F /  7.6 °C 29.3in /  991.1hPa Calm   3.6mph /  5.8km/h 97% 0.02in /  0.5mm
17:07 46.6 °F /  8.1 °C 45.7 °F /  7.6 °C 29.3in /  992.1hPa WSW 2mph /  3.2km/h 3.6mph /  5.8km/h 97% 0.02in /  0.5mm
17:12 46.6 °F /  8.1 °C 45.7 °F /  7.6 °C 29.3in /  992.1hPa Calm   2mph /  3.2km/h 97% 0.02in /  0.5mm
17:17 46.6 °F /  8.1 °C 45.7 °F /  7.6 °C 29.3in /  992.1hPa Calm   2mph /  3.2km/h 97% 0.02in /  0.5mm
17:22 46.6 °F /  8.1 °C 45.7 °F /  7.6 °C 29.3in /  991.1hPa Calm   2mph /  3.2km/h 97% 0.01in /  0.3mm
17:27 46.2 °F /  7.9 °C 45.5 °F /  7.5 °C 29.3in /  991.1hPa Calm     97% 0.01in /  0.3mm
17:32 46.6 °F /  8.1 °C 45.7 °F /  7.6 °C 29.3in /  991.1hPa Calm     97% 0.01in /  0.3mm
17:37 46.6 °F /  8.1 °C 45.7 °F /  7.6 °C 29.2in /  990.1hPa Calm     97% 0.01in /  0.3mm
17:42 46.6 °F /  8.1 °C 45.7 °F /  7.6 °C 29.2in /  990.1hPa Calm     97% 0in /  0.0mm
17:47 46.6 °F /  8.1 °C 45.7 °F /  7.6 °C 29.2in /  990.1hPa Calm     97% 0in /  0.0mm
17:52 46.6 °F /  8.1 °C 45.7 °F /  7.6 °C 29.3in /  991.1hPa Calm     97% 0in /  0.0mm
17:57 46.6 °F /  8.1 °C 45.7 °F /  7.6 °C 29.3in /  991.1hPa Calm     97% 0in /  0.0mm
18:02 46.6 °F /  8.1 °C 45.7 °F /  7.6 °C 29.3in /  991.1hPa Calm     97% 0in /  0.0mm
18:07 46.6 °F /  8.1 °C 45.7 °F /  7.6 °C 29.3in /  991.1hPa Calm     97% 0in /  0.0mm
18:12 46.2 °F /  7.9 °C 45.5 °F /  7.5 °C 29.3in /  991.1hPa Calm     97% 0in /  0.0mm
18:18 46 °F /  7.8 °C 45.3 °F /  7.4 °C 29.3in /  991.1hPa Calm     97% 0in /  0.0mm
18:23 46 °F /  7.8 °C 45.3 °F /  7.4 °C 29.3in /  991.1hPa Calm     97% 0in /  0.0mm
18:28 45.9 °F /  7.7 °C 45.1 °F /  7.3 °C 29.3in /  991.1hPa SSW 4mph /  6.4km/h 4mph /  6.4km/h 97% 0in /  0.0mm
18:33 45.9 °F /  7.7 °C 45.1 °F /  7.3 °C 29.3in /  991.1hPa Calm   4mph /  6.4km/h 97% 0in /  0.0mm
18:38 45.9 °F /  7.7 °C 45.1 °F /  7.3 °C 29.3in /  992.1hPa SSW 3.1mph /  5.0km/h 4mph /  6.4km/h 97% 0in /  0.0mm
18:43 45.9 °F /  7.7 °C 45.1 °F /  7.3 °C 29.3in /  992.1hPa SW 3.8mph /  6.1km/h 4.7mph /  7.6km/h 97% 0in /  0.0mm
18:48 45.9 °F /  7.7 °C 45.1 °F /  7.3 °C 29.3in /  992.1hPa SW 2.9mph /  4.7km/h 6mph /  9.7km/h 97% 0in /  0.0mm
18:53 45.9 °F /  7.7 °C 45.3 °F /  7.4 °C 29.3in /  992.1hPa SSW 4mph /  6.4km/h 6mph /  9.7km/h 98% 0in /  0.0mm
18:58 45.9 °F /  7.7 °C 45.3 °F /  7.4 °C 29.3in /  992.1hPa SSW 4.3mph /  6.9km/h 6.3mph /  10.1km/h 98% 0in /  0.0mm
19:03 45.9 °F /  7.7 °C 45.3 °F /  7.4 °C 29.3in /  992.1hPa SW 3.8mph /  6.1km/h 6.3mph /  10.1km/h 98% 0in /  0.0mm
19:08 45.9 °F /  7.7 °C 45.3 °F /  7.4 °C 29.3in /  992.1hPa SSW 3.6mph /  5.8km/h 6.3mph /  10.1km/h 98% 0in /  0.0mm
19:13 45.9 °F /  7.7 °C 45.3 °F /  7.4 °C 29.3in /  992.1hPa WSW 6mph /  9.7km/h 6mph /  9.7km/h 98% 0in /  0.0mm
19:18 45.9 °F /  7.7 °C 45.3 °F /  7.4 °C 29.3in /  992.1hPa SW 3.6mph /  5.8km/h 6mph /  9.7km/h 98% 0in /  0.0mm
19:23 45.9 °F /  7.7 °C 45.3 °F /  7.4 °C 29.3in /  993.1hPa SSW 4.9mph /  7.9km/h 5.8mph /  9.3km/h 98% 0in /  0.0mm
19:28 45.9 °F /  7.7 °C 45.1 °F /  7.3 °C 29.3in /  993.1hPa SW 5.8mph /  9.3km/h 5.8mph /  9.3km/h 98% 0in /  0.0mm
19:33 45.9 °F /  7.7 °C 45.3 °F /  7.4 °C 29.3in /  993.1hPa SW 4mph /  6.4km/h 6.5mph /  10.5km/h 98% 0in /  0.0mm
19:38 45.9 °F /  7.7 °C 45.3 °F /  7.4 °C 29.3in /  993.1hPa WSW 5.4mph /  8.7km/h 7.8mph /  12.6km/h 98% 0in /  0.0mm
19:43 45.9 °F /  7.7 °C 45.3 °F /  7.4 °C 29.3in /  993.1hPa SW 5.8mph /  9.3km/h 8.1mph /  13.0km/h 98% 0in /  0.0mm
19:48 45.9 °F /  7.7 °C 45.3 °F /  7.4 °C 29.3in /  993.1hPa SSW 5.8mph /  9.3km/h 8.1mph /  13.0km/h 98% 0in /  0.0mm
19:53 45.9 °F /  7.7 °C 45.3 °F /  7.4 °C 29.3in /  993.1hPa WSW 4.9mph /  7.9km/h 7.2mph /  11.6km/h 98% 0in /  0.0mm
19:58 45.9 °F /  7.7 °C 45.3 °F /  7.4 °C 29.3in /  993.1hPa WSW 5.6mph /  9.0km/h 6.3mph /  10.1km/h 98% 0in /  0.0mm
20:03 45.9 °F /  7.7 °C 45.1 °F /  7.3 °C 29.3in /  993.1hPa SW 3.8mph /  6.1km/h 6mph /  9.7km/h 98% 0in /  0.0mm
20:08 45.9 °F /  7.7 °C 45.1 °F /  7.3 °C 29.3in /  992.1hPa SW 3.8mph /  6.1km/h 5.8mph /  9.3km/h 98% 0in /  0.0mm
20:13 45.9 °F /  7.7 °C 45.1 °F /  7.3 °C 29.3in /  992.1hPa SW 3.6mph /  5.8km/h 5.8mph /  9.3km/h 98% 0in /  0.0mm
20:18 45.7 °F /  7.6 °C 45.1 °F /  7.3 °C 29.3in /  992.1hPa SSW 4.3mph /  6.9km/h 5.8mph /  9.3km/h 98% 0in /  0.0mm
20:23 45.7 °F /  7.6 °C 45.1 °F /  7.3 °C 29.3in /  993.1hPa SW 3.1mph /  5.0km/h 5.4mph /  8.7km/h 98% 0in /  0.0mm
20:28 45.7 °F /  7.6 °C 45.1 °F /  7.3 °C 29.3in /  993.1hPa SW 4.9mph /  7.9km/h 6.5mph /  10.5km/h 98% 0in /  0.0mm
20:33 45.3 °F /  7.4 °C 45 °F /  7.2 °C 29.3in /  993.1hPa SW 4mph /  6.4km/h 6.5mph /  10.5km/h 98% 0in /  0.0mm
20:38 45.3 °F /  7.4 °C 45 °F /  7.2 °C 29.3in /  993.1hPa SW 4.3mph /  6.9km/h 5.6mph /  9.0km/h 98% 0in /  0.0mm
20:43 45.3 °F /  7.4 °C 45 °F /  7.2 °C 29.3in /  993.1hPa SW 3.1mph /  5.0km/h 6mph /  9.7km/h 98% 0in /  0.0mm
20:48 45.1 °F /  7.3 °C 44.8 °F /  7.1 °C 29.3in /  993.1hPa SSW 3.6mph /  5.8km/h 6mph /  9.7km/h 98% 0in /  0.0mm
20:53 45.1 °F /  7.3 °C 44.8 °F /  7.1 °C 29.3in /  993.1hPa South 2.5mph /  4.0km/h 4.3mph /  6.9km/h 98% 0in /  0.0mm
20:58 45.1 °F /  7.3 °C 44.4 °F /  6.9 °C 29.3in /  993.1hPa South 3.6mph /  5.8km/h 4mph /  6.4km/h 98% 0in /  0.0mm
21:03 45 °F /  7.2 °C 44.1 °F /  6.7 °C 29.3in /  993.1hPa SSW 2.9mph /  4.7km/h 4.3mph /  6.9km/h 97% 0in /  0.0mm
21:08 45 °F /  7.2 °C 44.1 °F /  6.7 °C 29.3in /  993.1hPa South 3.6mph /  5.8km/h 4.9mph /  7.9km/h 97% 0in /  0.0mm
21:13 44.8 °F /  7.1 °C 43.9 °F /  6.6 °C 29.3in /  993.1hPa SSW 3.8mph /  6.1km/h 4.9mph /  7.9km/h 97% 0in /  0.0mm
21:18 44.8 °F /  7.1 °C 43.9 °F /  6.6 °C 29.3in /  993.1hPa South 3.1mph /  5.0km/h 6.5mph /  10.5km/h 97% 0in /  0.0mm
21:23 44.4 °F /  6.9 °C 43.7 °F /  6.5 °C 29.3in /  993.1hPa SSW 2.9mph /  4.7km/h 6.5mph /  10.5km/h 97% 0in /  0.0mm
21:28 44.4 °F /  6.9 °C 43.7 °F /  6.5 °C 29.3in /  993.1hPa South 2.9mph /  4.7km/h 6mph /  9.7km/h 97% 0in /  0.0mm
21:33 44.2 °F /  6.8 °C 43.5 °F /  6.4 °C 29.3in /  993.1hPa SSW 4.9mph /  7.9km/h 6mph /  9.7km/h 97% 0in /  0.0mm
21:38 44.2 °F /  6.8 °C 43.5 °F /  6.4 °C 29.3in /  993.1hPa SSW 3.8mph /  6.1km/h 7.2mph /  11.6km/h 97% 0in /  0.0mm
21:43 44.2 °F /  6.8 °C 43.5 °F /  6.4 °C 29.3in /  993.1hPa SSW 6mph /  9.7km/h 7.6mph /  12.2km/h 97% 0in /  0.0mm
21:48 44.2 °F /  6.8 °C 43.5 °F /  6.4 °C 29.3in /  993.1hPa SSW 6.3mph /  10.1km/h 8.7mph /  14.0km/h 97% 0in /  0.0mm
21:53 44.2 °F /  6.8 °C 43.5 °F /  6.4 °C 29.3in /  993.1hPa South 4.3mph /  6.9km/h 8.7mph /  14.0km/h 97% 0in /  0.0mm
21:58 44.2 °F /  6.8 °C 43.5 °F /  6.4 °C 29.3in /  993.1hPa SSW 4.9mph /  7.9km/h 10.7mph /  17.2km/h 97% 0in /  0.0mm
22:03 44.2 °F /  6.8 °C 43.5 °F /  6.4 °C 29.3in /  993.1hPa SSW 7.8mph /  12.6km/h 10.7mph /  17.2km/h 97% 0in /  0.0mm
22:08 44.2 °F /  6.8 °C 43.5 °F /  6.4 °C 29.3in /  993.1hPa SSW 6mph /  9.7km/h 9.8mph /  15.8km/h 97% 0in /  0.0mm
22:13 44.2 °F /  6.8 °C 43.5 °F /  6.4 °C 29.3in /  993.1hPa South 4.9mph /  7.9km/h 9.8mph /  15.8km/h 97% 0in /  0.0mm
22:18 44.2 °F /  6.8 °C 43.5 °F /  6.4 °C 29.3in /  993.1hPa SSW 7.8mph /  12.6km/h 12.5mph /  20.1km/h 97% 0in /  0.0mm
22:23 44.2 °F /  6.8 °C 43.5 °F /  6.4 °C 29.3in /  992.1hPa South 3.6mph /  5.8km/h 12.5mph /  20.1km/h 97% 0in /  0.0mm
22:28 44.2 °F /  6.8 °C 43.5 °F /  6.4 °C 29.3in /  992.1hPa SSW 7.8mph /  12.6km/h 10.5mph /  16.9km/h 97% 0in /  0.0mm
22:33 44.2 °F /  6.8 °C 43.5 °F /  6.4 °C 29.3in /  992.1hPa SSW 7.8mph /  12.6km/h 10.5mph /  16.9km/h 97% 0in /  0.0mm
22:38 44.2 °F /  6.8 °C 43.5 °F /  6.4 °C 29.3in /  993.1hPa SW 5.6mph /  9.0km/h 8.7mph /  14.0km/h 97% 0in /  0.0mm
22:43 44.2 °F /  6.8 °C 43.3 °F /  6.3 °C 29.3in /  993.1hPa SSW 5.6mph /  9.0km/h 10.7mph /  17.2km/h 96% 0in /  0.0mm
22:48 44.2 °F /  6.8 °C 43.3 °F /  6.3 °C 29.3in /  993.1hPa SW 6mph /  9.7km/h 10.7mph /  17.2km/h 96% 0in /  0.0mm
22:53 44.2 °F /  6.8 °C 43.3 °F /  6.3 °C 29.4in /  994.1hPa SW 8.1mph /  13.0km/h 11mph /  17.7km/h 96% 0in /  0.0mm
22:58 44.2 °F /  6.8 °C 43.3 °F /  6.3 °C 29.4in /  994.1hPa WSW 8.5mph /  13.7km/h 13.6mph /  21.9km/h 96% 0in /  0.0mm
23:03 44.4 °F /  6.9 °C 43.5 °F /  6.4 °C 29.4in /  994.1hPa SW 11.2mph /  18.0km/h 13.6mph /  21.9km/h 96% 0in /  0.0mm
23:08 44.4 °F /  6.9 °C 43.5 °F /  6.4 °C 29.4in /  994.1hPa SW 10.5mph /  16.9km/h 15.2mph /  24.5km/h 96% 0in /  0.0mm
23:13 44.4 °F /  6.9 °C 43.2 °F /  6.2 °C 29.4in /  994.1hPa SW 9.8mph /  15.8km/h 15.2mph /  24.5km/h 95% 0in /  0.0mm
23:18 44.4 °F /  6.9 °C 43.2 °F /  6.2 °C 29.4in /  994.1hPa WSW 7.4mph /  11.9km/h 12.5mph /  20.1km/h 95% 0in /  0.0mm
23:23 44.8 °F /  7.1 °C 43.3 °F /  6.3 °C 29.4in /  994.1hPa SW 8.7mph /  14.0km/h 12.3mph /  19.8km/h 95% 0in /  0.0mm
23:28 44.8 °F /  7.1 °C 43.2 °F /  6.2 °C 29.4in /  994.1hPa SSW 6mph /  9.7km/h 11.9mph /  19.1km/h 94% 0in /  0.0mm
23:33 45 °F /  7.2 °C 43.3 °F /  6.3 °C 29.4in /  994.1hPa SSW 7.6mph /  12.2km/h 12.3mph /  19.8km/h 94% 0in /  0.0mm
23:38 45.1 °F /  7.3 °C 43.3 °F /  6.3 °C 29.4in /  994.1hPa SW 12.3mph /  19.8km/h 15.4mph /  24.8km/h 94% 0in /  0.0mm
23:43 45.1 °F /  7.3 °C 43.3 °F /  6.3 °C 29.4in /  994.1hPa SSW 12.8mph /  20.6km/h 15.4mph /  24.8km/h 94% 0in /  0.0mm
23:48 45.1 °F /  7.3 °C 43.3 °F /  6.3 °C 29.4in /  994.1hPa SW 6.5mph /  10.5km/h 13.2mph /  21.2km/h 94% 0in /  0.0mm
23:53 45.1 °F /  7.3 °C 43.2 °F /  6.2 °C 29.4in /  994.1hPa SW 9.6mph /  15.4km/h 12.8mph /  20.6km/h 93% 0in /  0.0mm
23:58 45.1 °F /  7.3 °C 43.3 °F /  6.3 °C 29.4in /  994.1hPa SW 7.8mph /  12.6km/h 11.9mph /  19.1km/h 93% 0in /  0.0mm
Données Historique de Météo Turbie

Mise a jour : 24/05/2018 22:56:13
Généré par Cumulus 1.9.4 (1099)